• Join FlightAware (Why Join?)
  • Login
  • US Flag 
09:34AM EDT


 

Airport Tracker/Info


-or-


 

Live Flight TrackerFlight Track Log ✈ VRD416 ✈ 19-Jun-2013 ✈ KLAX - KJFK

Flight Track Log - Related Links

Times and Time Zones

All times are in EDT time to prevent confusion due to time zone crossing. See the VRD416 flight status page for this flight to view local times or setup timezone preferences in your user account.

Time Position Orientation Groundspeed Altitude Reporting Facility
EDT Latitude Longitude Course Direction KTS MPH feet Rate Location/Type
06:32PM 33.9410 -118.4890 262° West 184 212 2,500  Level FlightAware
06:33PM 33.9340 -118.5430 261° West 227 261 3,300 1,200 Climbing FlightAware
06:33PM 33.9310 -118.5630 260° West 249 287 3,700 2,220 Climbing FlightAware
06:34PM 33.9210 -118.6020 253° West 252 290 5,000 2,460 Climbing FlightAware
06:34PM 33.9140 -118.6130 233° Southwest 257 296 5,400 2,400 Climbing FlightAware
06:34PM 33.8980 -118.6240 210° Southwest 261 300 6,000 2,100 Climbing FlightAware
06:35PM 33.8860 -118.6270 192° South 265 305 6,400 1,500 Climbing FlightAware
06:36PM 33.8460 -118.5740 132° Southeast 282 325 8,200 1,920 Climbing FlightAware
06:36PM 33.8720 -118.5150 62° Northeast 286 329 9,500 2,400 Climbing FlightAware
06:37PM 33.9150 -118.4620 46° Northeast 305 351 10,800 1,620 Climbing FlightAware
06:38PM 33.9540 -118.3970 54° Northeast 332 382 11,900 1,380 Climbing FlightAware
06:38PM 33.9930 -118.3260 56° Northeast 354 407 12,900 1,680 Climbing FlightAware
06:39PM 34.0310 -118.2600 55° Northeast 355 409 14,300 1,560 Climbing FlightAware
06:40PM 34.0690 -118.1930 56° Northeast 375 432 15,000 1,140 Climbing FlightAware
06:40PM 34.1110 -118.1180 56° Northeast 393 452 15,900 1,200 Climbing FlightAware
06:41PM 34.1630 -118.0270 55° Northeast 412 474 16,800 1,200 Climbing FlightAware
06:42PM 34.2080 -117.9460 56° Northeast 424 488 17,700 1,440 Climbing FlightAware
06:43PM 34.2540 -117.8650 55° Northeast 429 494 18,800 1,260 Climbing FlightAware
06:43PM 34.3010 -117.7820 56° Northeast 441 507 19,500 900 Climbing FlightAware
06:44PM 34.3470 -117.6990 56° Northeast 455 524 20,100 1,080 Climbing FlightAware
06:45PM 34.4020 -117.6010 56° Northeast 461 531 21,100 1,320 Climbing FlightAware
06:45PM 34.4490 -117.5150 56° Northeast 468 539 22,000 1,320 Climbing FlightAware
06:46PM 34.4930 -117.4360 56° Northeast 471 542 22,800 1,200 Climbing FlightAware
06:47PM 34.5530 -117.3280 56° Northeast 478 550 23,700 1,020 Climbing FlightAware
06:47PM 34.6010 -117.2400 56° Northeast 485 558 24,300 1,020 Climbing FlightAware
06:48PM 34.6510 -117.1490 56° Northeast 488 562 25,100 1,020 Climbing FlightAware
06:49PM 34.7130 -117.0360 56° Northeast 494 568 25,800 780 Climbing FlightAware
06:50PM 34.7610 -116.9490 56° Northeast 498 573 26,300 780 Climbing FlightAware
06:50PM 34.8090 -116.8620 56° Northeast 503 579 26,800 660 Climbing FlightAware
06:51PM 34.8520 -116.7820 57° Northeast 505 581 27,300 840 Climbing FlightAware
06:52PM 34.9280 -116.6420 56° Northeast 511 588 28,100 780 Climbing FlightAware
06:52PM 34.9800 -116.5560 54° Northeast 511 588 28,400 540 Climbing FlightAware
06:53PM 35.0590 -116.4590 45° Northeast 512 589 28,900 660 Climbing FlightAware
06:54PM 35.1260 -116.3750 46° Northeast 516 594 29,400 600 Climbing FlightAware
06:54PM 35.1840 -116.3010 46° Northeast 519 597 29,700 900 Climbing FlightAware
06:55PM 35.2690 -116.1950 46° Northeast 515 593 30,700 1,140 Climbing FlightAware
06:56PM 35.3330 -116.1150 46° Northeast 512 589 31,400 1,020 Climbing FlightAware
06:57PM 35.4070 -116.0220 46° Northeast 507 583 32,200 960 Climbing FlightAware
06:57PM 35.4730 -115.9370 46° Northeast 509 586 32,800 840 Climbing FlightAware
06:58PM 35.5340 -115.8600 46° Northeast 509 586 33,300 720 Climbing FlightAware
06:59PM 35.6090 -115.7650 46° Northeast 507 583 33,800 660 Climbing FlightAware
06:59PM 35.6720 -115.6840 46° Northeast 504 580 34,300 540 Climbing FlightAware
07:01PM 35.8120 -115.5050 46° Northeast 503 579 35,000 300 Climbing FlightAware
07:01PM 35.8780 -115.4210 46° Northeast 497 572 35,000  Level FlightAware
07:02PM 35.9500 -115.3280 46° Northeast 492 566 35,000  Level FlightAware
07:03PM 36.0150 -115.2440 46° Northeast 491 565 35,000  Level FlightAware
07:04PM 36.1000 -115.1340 46° Northeast 488 562 35,000  Level FlightAware
07:04PM 36.1630 -115.0540 46° Northeast 486 559 35,000  Level FlightAware
07:05PM 36.2420 -114.9550 45° Northeast 487 560 35,000  Level FlightAware
07:06PM 36.3140 -114.8640 46° Northeast 490 564 35,000 60 Level FlightAware
07:07PM 36.3780 -114.7810 46° Northeast 490 564 35,100  Climbing FlightAware
07:07PM 36.4420 -114.6970 47° Northeast 488 562 35,000 -120 Descending FlightAware
07:08PM 36.4920 -114.6320 46° Northeast 488 562 35,000  Level FlightAware
07:09PM 36.5710 -114.5290 46° Northeast 489 563 35,000  Level FlightAware
07:10PM 36.6410 -114.4380 46° Northeast 492 566 35,000  Level FlightAware
07:10PM 36.6740 -114.3940 47° Northeast 496 571 35,000  Level FlightAware
07:11PM 36.7680 -114.2580 49° Northeast 507 583 35,000  Level FlightAware
07:12PM 36.8070 -114.1820 57° Northeast 509 586 35,000 60 Level FlightAware
07:12PM 36.8660 -114.0600 59° Northeast 507 583 35,100  Climbing FlightAware
07:13PM 36.9220 -113.9450 59° Northeast 506 582 35,000 -120 Descending FlightAware
07:14PM 36.9720 -113.8390 59° Northeast 507 583 35,000  Level FlightAware
07:14PM 37.0220 -113.7340 59° Northeast 506 582 35,000  Level FlightAware
07:15PM 37.0900 -113.5920 59° Northeast 506 582 35,000  Level FlightAware
07:16PM 37.1380 -113.4910 59° Northeast 507 583 35,000  Level FlightAware
07:17PM 37.1880 -113.3860 59° Northeast 508 585 35,000  Level FlightAware
07:17PM 37.2380 -113.2790 60° Northeast 509 586 35,000  Level FlightAware
07:18PM 37.2900 -113.1680 59° Northeast 509 586 35,000  Level FlightAware
07:19PM 37.3410 -113.0600 59° Northeast 509 586 35,000  Level FlightAware
07:19PM 37.3830 -112.9690 60° Northeast 510 587 35,000  Level FlightAware
07:20PM 37.4400 -112.8470 59° Northeast 510 587 35,000  Level FlightAware
07:21PM 37.4750 -112.7720 60° Northeast 511 588 35,000  Level FlightAware
07:22PM 37.5300 -112.6570 59° Northeast 511 588 35,000  Level FlightAware
07:22PM 37.5710 -112.5700 59° Northeast 511 588 35,000  Level FlightAware
07:23PM 37.6100 -112.4900 58° Northeast 511 588 35,000  Level FlightAware
07:24PM 37.6600 -112.3830 59° Northeast 511 588 35,000  Level FlightAware
07:24PM 37.6980 -112.3050 58° Northeast 511 588 35,000  Level FlightAware
07:26PM 37.7740 -112.1430 59° Northeast 511 588 35,000  Level FlightAware
07:26PM 37.9040 -111.9330 52° Northeast 511 588 35,000  Level FlightAware
07:27PM 37.9600 -111.8360 54° Northeast 512 589 35,000  Level FlightAware
07:28PM 38.0170 -111.7350 54° Northeast 512 589 35,000  Level FlightAware
07:28PM 38.0780 -111.6270 54° Northeast 513 590 35,000  Level FlightAware
07:29PM 38.1340 -111.5290 54° Northeast 515 593 35,000  Level FlightAware
07:30PM 38.1820 -111.4440 54° Northeast 515 593 35,000 60 Level FlightAware
07:31PM 38.2530 -111.3200 54° Northeast 514 592 35,100  Climbing FlightAware
07:31PM 38.3110 -111.2160 55° Northeast 514 592 35,000 -120 Descending FlightAware
07:32PM 38.3650 -111.1200 54° Northeast 514 592 35,000  Level FlightAware
07:33PM 38.4290 -111.0040 55° Northeast 514 592 35,000  Level FlightAware
07:33PM 38.4830 -110.9070 55° Northeast 512 589 35,000  Level FlightAware
07:34PM 38.5420 -110.8020 54° Northeast 516 594 35,000  Level FlightAware
07:35PM 38.5890 -110.7170 55° Northeast 516 594 35,000  Level FlightAware
07:35PM 38.6520 -110.6020 55° Northeast 516 594 35,000  Level FlightAware
07:36PM 38.7180 -110.4840 54° Northeast 514 592 35,000  Level FlightAware
07:37PM 38.7660 -110.3950 55° Northeast 513 590 35,000  Level FlightAware
07:38PM 38.8330 -110.2730 55° Northeast 514 592 35,000  Level FlightAware
07:38PM 38.8870 -110.1740 55° Northeast 511 588 35,000  Level FlightAware
07:39PM 38.9440 -110.0650 56° Northeast 513 590 35,000  Level FlightAware
07:40PM 38.9850 -109.9510 65° Northeast 516 594 35,000  Level FlightAware
07:40PM 39.0260 -109.8300 66° East 518 596 35,000  Level FlightAware
07:41PM 39.0630 -109.7230 66° East 518 596 35,000 60 Level FlightAware
07:42PM 39.1060 -109.5950 67° East 519 597 35,100  Climbing FlightAware
07:42PM 39.1460 -109.4790 66° East 519 597 35,000  Descending FlightAware
07:43PM 39.1830 -109.3690 67° East 519 597 35,100 60 Climbing FlightAware
07:44PM 39.2270 -109.2360 67° East 514 592 35,100 -120 Level FlightAware
07:45PM 39.2660 -109.1190 67° East 510 587 35,000 -120 Descending FlightAware
07:45PM 39.3000 -109.0190 66° East 505 581 35,000  Level FlightAware
07:46PM 39.3400 -108.8980 67° East 504 580 35,000  Level FlightAware
07:47PM 39.3800 -108.7750 67° East 507 583 35,000  Level FlightAware
07:47PM 39.4170 -108.6620 67° East 507 583 35,000  Level FlightAware
07:48PM 39.4550 -108.5460 67° East 505 581 35,000  Level FlightAware
07:49PM 39.4930 -108.4290 67° East 504 580 35,000  Level FlightAware
07:49PM 39.5310 -108.3140 67° East 507 583 35,000  Level FlightAware
07:51PM 39.5980 -108.1050 67° East 505 581 35,000  Level FlightAware
07:51PM 39.6330 -107.9950 68° East 505 581 35,100  Climbing FlightAware
07:52PM 39.6740 -107.8700 67° East 504 580 35,000 -120 Descending FlightAware
07:53PM 39.7070 -107.7640 68° East 503 579 35,000  Level FlightAware
07:53PM 39.7450 -107.6430 68° East 501 577 35,000  Level FlightAware
07:54PM 39.7810 -107.5310 67° East 501 577 35,000  Level FlightAware
07:54PM 39.7915 -107.4970 68° East 500 575 35,000  Level FlightAware ADS-B
07:55PM 39.8186 -107.4110 68° East 502 578 35,000  Level FlightAware ADS-B
07:55PM 39.8457 -107.3250 68° East 502 578 35,000  Level FlightAware ADS-B
07:56PM 39.8940 -107.1700 68° East 501 577 35,000  Level FlightAware ADS-B
07:57PM 39.9230 -107.0770 68° East 497 572 35,000  Level FlightAware
07:57PM 39.9524 -106.9810 68° East 496 571 35,000  Level FlightAware ADS-B
07:58PM 39.9791 -106.8940 68° East 491 565 35,000  Level FlightAware ADS-B
07:59PM 40.0184 -106.7660 68° East 491 565 35,000  Level FlightAware ADS-B
08:00PM 40.0700 -106.5980 68° East 493 567 35,000  Level FlightAware
08:00PM 40.1060 -106.4780 69° East 488 562 35,000  Level FlightAware
08:01PM 40.1360 -106.3800 68° East 489 563 35,000  Level FlightAware
08:01PM 40.1483 -106.3390 69° East 490 564 35,000  Level FlightAware ADS-B
08:02PM 40.1795 -106.2350 69° East 493 567 35,000  Level FlightAware ADS-B
08:02PM 40.2100 -106.1330 69° East 489 563 35,000  Level FlightAware
08:03PM 40.2167 -106.1110 68° East 494 568 35,000 120 Level FlightAware ADS-B
08:03PM 40.2435 -106.0210 69° East 494 568 35,100  Climbing FlightAware ADS-B
08:04PM 40.2710 -105.9270 69° East 490 564 35,000 -120 Descending FlightAware
08:04PM 40.2927 -105.8550 68° East 490 564 35,000  Level FlightAware ADS-B
08:05PM 40.3164 -105.7750 69° East 493 567 35,000  Level FlightAware ADS-B
08:05PM 40.3450 -105.6790 69° East 496 571 35,000  Level FlightAware
08:05PM 40.3546 -105.6450 70° East 496 571 35,000 120 Level FlightAware ADS-B
08:06PM 40.3820 -105.5500 69° East 495 570 35,100 120 Climbing FlightAware
08:06PM 40.3954 -105.5060 68° East 496 571 35,100  Level FlightAware ADS-B
08:07PM 40.4262 -105.4000 69° East 494 568 35,100 -120 Level FlightAware ADS-B
08:08PM 40.4607 -105.2810 69° East 493 567 35,000 -120 Descending FlightAware ADS-B
08:08PM 40.4860 -105.1940 69° East 492 566 35,000  Level FlightAware
08:08PM 40.4929 -105.1700 69° East 492 566 35,000  Level FlightAware ADS-B
08:09PM 40.5184 -105.0810 69° East 492 566 35,000  Level FlightAware ADS-B
08:09PM 40.5430 -104.9950 69° East 492 566 35,000  Level FlightAware ADS-B
08:10PM 40.5686 -104.9060 69° East 489 563 35,000  Level FlightAware ADS-B
08:10PM 40.5940 -104.8170 69° East 488 562 35,000  Level FlightAware ADS-B
08:11PM 40.6186 -104.7300 70° East 486 559 35,000  Level FlightAware ADS-B
08:11PM 40.6450 -104.6370 69° East 487 560 35,000  Level FlightAware ADS-B
08:12PM 40.6685 -104.5530 70° East 484 557 35,000  Level FlightAware ADS-B
08:12PM 40.6921 -104.4690 70° East 483 556 35,000  Level FlightAware ADS-B
08:13PM 40.7157 -104.3850 70° East 482 555 35,000  Level FlightAware ADS-B
08:13PM 40.7391 -104.3010 70° East 482 555 35,000  Level FlightAware ADS-B
08:14PM 40.7622 -104.2180 70° East 479 551 35,000  Level FlightAware ADS-B
08:14PM 40.7851 -104.1350 70° East 478 550 35,000  Level FlightAware ADS-B
08:15PM 40.8078 -104.0530 70° East 479 551 35,000  Level FlightAware ADS-B
08:16PM 40.8319 -103.9660 70° East 477 549 35,000  Level FlightAware ADS-B
08:16PM 40.8546 -103.8830 70° East 472 543 35,000  Level FlightAware ADS-B
08:17PM 40.8770 -103.8010 70° East 473 544 35,000  Level FlightAware ADS-B
08:17PM 40.8997 -103.7180 70° East 475 547 35,000  Level FlightAware ADS-B
08:18PM 40.9226 -103.6340 70° East 476 548 35,000  Level FlightAware ADS-B
08:18PM 40.9452 -103.5510 70° East 477 549 35,000  Level FlightAware ADS-B
08:19PM 40.9674 -103.4680 70° East 477 549 35,000  Level FlightAware ADS-B
08:19PM 40.9928 -103.3740 70° East 475 547 35,000  Level FlightAware ADS-B
08:20PM 41.0161 -103.2870 70° East 474 545 35,000  Level FlightAware ADS-B
08:20PM 41.0379 -103.2050 71° East 472 543 35,000  Level FlightAware ADS-B
08:21PM 41.0595 -103.1240 70° East 471 542 35,000  Level FlightAware ADS-B
08:21PM 41.0818 -103.0400 71° East 472 543 35,000  Level FlightAware ADS-B
08:22PM 41.1033 -102.9540 72° East 473 544 35,000  Level FlightAware ADS-B
08:22PM 41.1257 -102.8490 74° East 473 544 35,000  Level FlightAware ADS-B
08:23PM 41.1443 -102.7630 74° East 476 548 35,000  Level FlightAware ADS-B
08:23PM 41.1640 -102.6720 74° East 479 551 35,000  Level FlightAware
08:24PM 41.1694 -102.6460 75° East 480 552 35,000  Level FlightAware ADS-B
08:24PM 41.1880 -102.5580 74° East 481 554 35,000 60 Level FlightAware ADS-B
08:25PM 41.2064 -102.4720 74° East 482 555 35,100 60 Climbing FlightAware ADS-B
08:25PM 41.2245 -102.3860 74° East 481 554 35,100 -120 Level FlightAware ADS-B
08:26PM 41.2427 -102.3000 74° East 482 555 35,000 -120 Descending FlightAware ADS-B
08:26PM 41.2609 -102.2130 74° East 479 551 35,000  Level FlightAware ADS-B
08:27PM 41.2796 -102.1240 74° East 478 550 35,000  Level FlightAware ADS-B
08:27PM 41.2971 -102.0390 75° East 480 552 35,000  Level FlightAware ADS-B
08:28PM 41.3152 -101.9520 74° East 480 552 35,000  Level FlightAware ADS-B
08:28PM 41.3411 -101.8260 75° East 480 552 35,000  Level FlightAware ADS-B
08:29PM 41.3590 -101.7390 75° East 478 550 35,000 60 Level FlightAware ADS-B
08:29PM 41.3770 -101.6510 75° East 475 547 35,100  Climbing FlightAware ADS-B
08:30PM 41.3944 -101.5650 75° East 474 545 35,000 -120 Descending FlightAware ADS-B
08:30PM 41.4126 -101.4750 75° East 474 545 35,000  Level FlightAware ADS-B
08:31PM 41.4301 -101.3880 75° East 473 544 35,000  Level FlightAware ADS-B
08:31PM 41.4491 -101.2930 75° East 472 543 35,000  Level FlightAware ADS-B
08:32PM 41.4750 -101.1660 75° East 473 544 35,000  Level FlightAware
08:33PM 41.4930 -101.0770 75° East 473 544 35,000  Level FlightAware
08:34PM 41.5160 -100.9620 75° East 473 544 35,000  Level FlightAware
08:35PM 41.5330 -100.8750 75° East 473 544 35,000  Level FlightAware
08:35PM 41.5550 -100.7650 75° East 473 544 35,000  Level FlightAware
08:36PM 41.5730 -100.6760 75° East 473 544 35,000  Level FlightAware
08:37PM 41.5970 -100.5560 75° East 473 544 35,000  Level FlightAware
08:37PM 41.6130 -100.4770 75° East 473 544 35,000  Level FlightAware
08:38PM 41.6370 -100.3540 75° East 473 544 35,000  Level FlightAware
08:39PM 41.6550 -100.2670 74° East 473 544 35,000  Level FlightAware
08:40PM 41.6800 -100.1420 75° East 473 544 35,000  Level FlightAware
08:40PM 41.7010 -100.0360 75° East 473 544 35,000  Level FlightAware
08:41PM 41.7180 -99.9500 75° East 473 544 35,000  Level FlightAware
08:42PM 41.7939 -99.4925 75° East 468 539 35,000  Level Minneapolis Center
08:43PM 41.8244 -99.3233 76° East 467 537 35,000  Level Minneapolis Center
08:44PM 41.8547 -99.1556 76° East 463 533 35,000  Level Minneapolis Center
08:45PM 41.8842 -98.9858 77° East 465 535 35,000  Level Minneapolis Center
08:46PM 41.9144 -98.8158 76° East 466 536 35,000  Level Minneapolis Center
08:47PM 41.9442 -98.6456 77° East 466 536 35,000  Level Minneapolis Center
08:48PM 41.9736 -98.4761 77° East 465 535 35,000  Level Minneapolis Center
08:55PM 42.1520 -97.4100 77° East 462 532 35,000  Level FlightAware
08:56PM 42.1800 -97.2380 78° East 463 533 35,000  Level FlightAware
08:56PM 42.1990 -97.1190 78° East 463 533 35,000  Level FlightAware
08:57PM 42.2190 -97.0040 77° East 463 533 35,000  Level FlightAware
08:58PM 42.2340 -96.9180 77° East 463 533 35,000  Level FlightAware
08:59PM 42.2530 -96.8030 77° East 463 533 35,000  Level FlightAware
08:59PM 42.2770 -96.6230 80° East 461 531 35,000  Level FlightAware
09:00PM 42.3010 -96.4670 78° East 460 529 35,000  Level FlightAware
09:01PM 42.3260 -96.3040 78° East 460 529 35,000  Level FlightAware
09:02PM 42.3540 -96.1140 79° East 460 529 35,000  Level FlightAware
09:03PM 42.3720 -95.9950 78° East 460 529 35,000  Level FlightAware
09:04PM 42.3890 -95.8810 79° East 461 531 35,000  Level FlightAware
09:04PM 42.4060 -95.7630 79° East 461 531 35,000  Level FlightAware
09:05PM 42.4300 -95.5990 79° East 460 529 35,000  Level FlightAware
09:06PM 42.4450 -95.4930 79° East 458 527 35,000  Level FlightAware
09:07PM 42.4650 -95.3570 79° East 457 526 35,000  Level FlightAware
09:07PM 42.4820 -95.2410 79° East 457 526 35,000  Level FlightAware
09:08PM 42.4980 -95.1220 80° East 458 527 35,000  Level FlightAware
09:09PM 42.5140 -95.0090 79° East 459 528 35,000  Level FlightAware
09:09PM 42.5300 -94.8960 79° East 461 531 35,000  Level FlightAware
09:10PM 42.5400 -94.8230 79° East 462 532 35,000  Level FlightAware
09:11PM 42.5540 -94.7170 80° East 462 532 35,000  Level FlightAware
09:11PM 42.5740 -94.5720 79° East 462 532 35,000  Level FlightAware
09:12PM 42.5910 -94.4470 79° East 460 529 35,000  Level FlightAware
09:13PM 42.6050 -94.3430 80° East 460 529 35,000  Level FlightAware
09:13PM 42.6120 -94.2130 86° East 463 533 35,000  Level FlightAware
09:14PM 42.6130 -94.0920 89° East 463 533 35,000 420 Level FlightAware
09:15PM 42.6140 -93.9230 89° East 464 534 35,700 840 Climbing FlightAware
09:16PM 42.6150 -93.8060 89° East 459 528 36,400 900 Climbing FlightAware
09:16PM 42.6160 -93.6820 89° East 455 524 37,000 360 Climbing FlightAware
09:17PM 42.6160 -93.5610 90° East 452 520 37,000  Level FlightAware
09:18PM 42.6160 -93.4430 90° East 455 524 37,000  Level FlightAware
09:19PM 42.6170 -93.3320 89° East 457 526 37,000  Level FlightAware
09:19PM 42.6170 -93.2180 90° East 457 526 37,000  Level FlightAware
09:20PM 42.6170 -93.0450 90° East 457 526 37,000  Level FlightAware
09:21PM 42.6170 -92.9490 90° East 457 526 37,000  Level FlightAware
09:22PM 42.6160 -92.8200 91° East 456 525 37,000  Level FlightAware
09:22PM 42.6160 -92.6870 90° East 454 522 37,000  Level FlightAware
09:23PM 42.6150 -92.5720 91° East 454 522 37,000  Level FlightAware
09:24PM 42.6150 -92.4570 90° East 455 524 37,000  Level FlightAware
09:24PM 42.6140 -92.3290 91° East 456 525 37,000  Level FlightAware
09:25PM 42.6130 -92.2060 91° East 459 528 37,000  Level FlightAware
09:26PM 42.6120 -92.1000 91° East 460 529 37,000 60 Level FlightAware
09:27PM 42.6100 -91.9650 91° East 460 529 37,100 60 Climbing FlightAware
09:27PM 42.6090 -91.8390 91° East 457 526 37,100 -120 Level FlightAware
09:28PM 42.6080 -91.7250 91° East 456 525 37,000 -120 Descending FlightAware
09:29PM 42.6060 -91.6050 91° East 455 524 37,000  Level FlightAware
09:29PM 42.6050 -91.4910 91° East 455 524 37,000  Level FlightAware
09:30PM 42.6020 -91.3330 91° East 458 527 37,000  Level FlightAware
09:31PM 42.6000 -91.2180 91° East 460 529 37,000  Level FlightAware
09:32PM 42.5980 -91.0820 91° East 462 532 37,000  Level FlightAware
09:32PM 42.5960 -90.9660 91° East 462 532 37,000  Level FlightAware
09:33PM 42.5930 -90.8400 92° East 463 533 37,000  Level FlightAware
09:34PM 42.5910 -90.7230 91° East 463 533 37,000  Level FlightAware
09:34PM 42.5880 -90.5980 92° East 463 533 37,000  Level FlightAware
09:36PM 42.5830 -90.3700 92° East 466 536 37,000  Level FlightAware
09:37PM 42.5790 -90.2240 92° East 468 539 37,000  Level FlightAware
09:37PM 42.5760 -90.1190 92° East 469 540 37,000  Level FlightAware
09:38PM 42.5730 -90.0130 92° East 470 541 37,000  Level FlightAware
09:39PM 42.5690 -89.8650 92° East 473 544 37,000  Level FlightAware
09:39PM 42.5650 -89.7290 92° East 473 544 37,000  Level FlightAware
09:40PM 42.5620 -89.6330 92° East 473 544 37,000  Level FlightAware
09:41PM 42.5580 -89.4910 92° East 474 545 37,000  Level FlightAware
09:41PM 42.5540 -89.3630 92° East 476 548 37,000  Level FlightAware
09:42PM 42.5490 -89.2370 93° East 477 549 37,000  Level FlightAware
09:43PM 42.5450 -89.1090 92° East 476 548 37,000  Level FlightAware
09:43PM 42.5410 -88.9980 93° East 476 548 37,000  Level FlightAware
09:44PM 42.5360 -88.8570 93° East 476 548 37,000  Level FlightAware
09:45PM 42.5310 -88.7330 93° East 479 551 37,000  Level FlightAware
09:46PM 42.5260 -88.6160 93° East 479 551 37,000  Level FlightAware
09:46PM 42.5210 -88.4880 93° East 478 550 37,000  Level FlightAware
09:47PM 42.5160 -88.3580 93° East 478 550 37,000  Level FlightAware
09:48PM 42.5110 -88.2530 94° East 478 550 37,000  Level FlightAware
09:48PM 42.5050 -88.1100 93° East 479 551 37,000  Level FlightAware
09:49PM 42.5000 -87.9940 93° East 480 552 37,000  Level FlightAware
09:50PM 42.5000 -87.8130 90° East 481 554 37,000  Level FlightAware
09:51PM 42.5000 -87.7060 90° East 480 552 37,000  Level FlightAware
09:51PM 42.4990 -87.5660 91° East 477 549 37,000  Level FlightAware
09:52PM 42.4990 -87.4510 90° East 474 545 37,000  Level FlightAware
09:53PM 42.4980 -87.3150 91° East 474 545 37,000  Level FlightAware
09:54PM 42.4970 -87.1850 91° East 478 550 37,000  Level FlightAware
09:54PM 42.4970 -87.0620 90° East 479 551 37,000 60 Level FlightAware
09:55PM 42.4960 -86.9480 91° East 477 549 37,100 60 Climbing FlightAware
09:56PM 42.4940 -86.8130 91° East 473 544 37,100 -120 Level FlightAware
09:56PM 42.4930 -86.6840 91° East 469 540 37,000 -120 Descending FlightAware
09:57PM 42.4920 -86.5810 91° East 467 537 37,000  Level FlightAware
09:58PM 42.4900 -86.4370 91° East 468 539 37,000  Level FlightAware
09:58PM 42.4890 -86.3330 91° East 468 539 37,000  Level FlightAware
09:59PM 42.4870 -86.1910 91° East 468 539 37,000  Level FlightAware
10:00PM 42.4850 -86.0730 91° East 469 540 37,000  Level FlightAware
10:01PM 42.4820 -85.9500 92° East 470 541 37,000  Level FlightAware
10:01PM 42.4800 -85.8380 91° East 470 541 37,000  Level FlightAware
10:02PM 42.4780 -85.7190 91° East 471 542 37,000  Level FlightAware
10:03PM 42.4750 -85.5760 92° East 471 542 37,000  Level FlightAware
10:03PM 42.4730 -85.4770 92° East 471 542 37,000  Level FlightAware
10:04PM 42.4700 -85.3330 92° East 470 541 37,000  Level FlightAware
10:05PM 42.4670 -85.2170 92° East 468 539 37,000  Level FlightAware
10:06PM 42.4630 -85.0650 92° East 467 537 37,000  Level FlightAware
10:06PM 42.4600 -84.9400 92° East 467 537 37,000  Level FlightAware
10:07PM 42.4560 -84.8240 93° East 470 541 37,000  Level FlightAware
10:08PM 42.4480 -84.6930 95° East 471 542 37,000  Level FlightAware
10:08PM 42.4420 -84.5850 94° East 473 544 37,000  Level FlightAware
10:09PM 42.4350 -84.4470 94° East 475 547 37,000  Level FlightAware
10:10PM 42.4280 -84.3360 95° East 476 548 37,000  Level FlightAware
10:11PM 42.4200 -84.2020 95° East 476 548 37,000  Level FlightAware
10:11PM 42.4120 -84.0690 95° East 476 548 37,000  Level FlightAware
10:12PM 42.4030 -83.9120 94° East 476 548 37,000  Level FlightAware
10:13PM 42.3950 -83.7870 95° East 475 547 37,000  Level FlightAware
10:14PM 42.3880 -83.6720 95° East 476 548 37,000  Level FlightAware
10:14PM 42.3790 -83.5370 95° East 477 549 37,000  Level FlightAware
10:15PM 42.3720 -83.4250 95° East 477 549 37,000  Level FlightAware
10:16PM 42.3630 -83.2930 95° East 478 550 37,000  Level FlightAware
10:16PM 42.3540 -83.1660 95° East 480 552 37,000  Level FlightAware
10:17PM 42.3460 -83.0390 95° East 480 552 37,000  Level FlightAware
10:18PM 42.3370 -82.9190 96° East 481 554 37,000  Level FlightAware
10:18PM 42.3270 -82.7830 96° East 481 554 37,000 -180 Level FlightAware
10:19PM 42.3190 -82.6640 95° East 480 552 36,800 -480 Descending FlightAware
10:20PM 42.3110 -82.5560 96° East 481 554 36,400 -600 Descending FlightAware
10:21PM 42.3010 -82.4200 96° East 478 550 36,000 -300 Descending FlightAware
10:21PM 42.2930 -82.3190 96° East 474 545 36,000  Level FlightAware
10:22PM 42.2840 -82.1980 96° East 475 547 36,000  Level FlightAware
10:23PM 42.2730 -82.0580 96° East 476 548 36,000  Level FlightAware
10:23PM 42.2650 -81.9500 96° East 478 550 36,000  Level FlightAware
10:24PM 42.2540 -81.8130 96° East 478 550 36,000  Level FlightAware
10:25PM 42.2450 -81.7010 96° East 478 550 36,000  Level FlightAware
10:26PM 42.2400 -81.6420 97° East 479 551 36,000  Level FlightAware
10:26PM 42.2180 -81.3810 96° East 481 554 36,000  Level FlightAware
10:27PM 42.2070 -81.2510 96° East 483 556 36,000  Level FlightAware
10:28PM 42.1960 -81.1160 96° East 483 556 36,000  Level FlightAware
10:28PM 42.1850 -81.0000 97° East 483 556 36,000  Level FlightAware
10:29PM 42.1740 -80.8690 96° East 483 556 36,000  Level FlightAware
10:30PM 42.1630 -80.7470 97° East 484 557 36,000  Level FlightAware
10:31PM 42.1580 -80.6920 97° East 484 557 36,000  Level FlightAware
10:32PM 42.1370 -80.4620 97° East 485 558 36,000  Level FlightAware
10:32PM 42.1260 -80.3400 97° East 486 559 36,000  Level FlightAware
10:33PM 42.1130 -80.2070 97° East 487 560 36,000  Level FlightAware
10:34PM 42.1030 -80.1030 97° East 486 559 36,000  Level FlightAware
10:34PM 42.0910 -79.9710 97° East 488 562 36,000  Level FlightAware
10:35PM 42.0750 -79.8040 97° East 489 563 36,000  Level FlightAware
10:36PM 42.0600 -79.6620 98° East 488 562 36,000  Level FlightAware
10:37PM 42.0480 -79.5370 97° East 486 559 36,000  Level FlightAware
10:37PM 42.0370 -79.4300 98° East 485 558 36,000  Level FlightAware
10:38PM 42.0180 -79.2510 98° East 486 559 36,000  Level FlightAware
10:39PM 42.0050 -79.1210 98° East 486 559 36,000  Level FlightAware
10:40PM 41.9910 -78.9870 98° East 485 558 36,000  Level FlightAware
10:40PM 41.9790 -78.8740 98° East 486 559 36,000  Level FlightAware
10:41PM 41.9640 -78.7360 98° East 486 559 36,000  Level FlightAware
10:42PM 41.9510 -78.6180 98° East 487 560 36,000  Level FlightAware
10:42PM 41.9370 -78.4880 98° East 487 560 36,000  Level FlightAware
10:43PM 41.9240 -78.3710 98° East 487 560 36,000  Level FlightAware
10:44PM 41.9110 -78.2570 99° East 487 560 36,000  Level FlightAware
10:45PM 41.8950 -78.1170 99° East 486 559 36,000  Level FlightAware
10:45PM 41.8810 -77.9910 98° East 486 559 36,000  Level FlightAware
10:46PM 41.8670 -77.8780 99° East 487 560 36,000  Level FlightAware
10:47PM 41.8420 -77.7640 106° East 492 566 36,000  Level FlightAware
10:47PM 41.8060 -77.6300 110° East 492 566 36,000  Level FlightAware
10:48PM 41.7770 -77.5190 109° East 491 565 36,000  Level FlightAware
10:49PM 41.7430 -77.3910 110° East 490 564 36,000  Level FlightAware
10:49PM 41.7110 -77.2730 110° East 490 564 36,000  Level FlightAware
10:51PM 41.6590 -77.0780 110° East 491 565 36,000  Level FlightAware
10:51PM 41.6240 -76.9490 110° East 489 563 36,000  Level FlightAware
10:52PM 41.5930 -76.8340 110° East 487 560 36,000  Level FlightAware
10:52PM 41.5829 -76.7987 111° Southeast 486 559 36,000  Level FlightAware ADS-B
10:53PM 41.5598 -76.7143 110° East 484 557 36,000  Level FlightAware ADS-B
10:53PM 41.5366 -76.6296 110° East 483 556 36,000  Level FlightAware ADS-B
10:54PM 41.5131 -76.5446 110° East 482 555 36,000  Level FlightAware ADS-B
10:54PM 41.4894 -76.4585 110° East 482 555 36,000  Level FlightAware ADS-B
10:55PM 41.4656 -76.3726 110° East 483 556 36,000  Level FlightAware ADS-B
10:55PM 41.4412 -76.2854 110° East 483 556 36,000 -480 Level FlightAware ADS-B
10:56PM 41.4171 -76.1991 110° East 494 568 35,500 -1,080 Descending FlightAware ADS-B
10:56PM 41.3922 -76.1106 111° Southeast 496 571 34,900 -1,500 Descending FlightAware ADS-B
10:57PM 41.3668 -76.0207 111° Southeast 487 560 34,000 -2,220 Descending FlightAware ADS-B
10:57PM 41.3423 -75.9334 110° East 490 564 32,600 -2,940 Descending FlightAware ADS-B
10:58PM 41.3166 -75.8424 111° Southeast 494 568 30,900 -3,060 Descending FlightAware ADS-B
10:58PM 41.2914 -75.7539 111° Southeast 495 570 29,400 -2,940 Descending FlightAware ADS-B
10:59PM 41.2689 -75.6767 111° Southeast 493 567 28,100 -2,640 Descending FlightAware ADS-B
10:59PM 41.2416 -75.5951 114° Southeast 484 557 26,900 -2,400 Descending FlightAware ADS-B
11:00PM 41.2145 -75.5142 114° Southeast 477 549 25,700 -2,340 Descending FlightAware ADS-B
11:00PM 41.1869 -75.4316 114° Southeast 470 541 24,500 -2,280 Descending FlightAware ADS-B
11:01PM 41.1600 -75.3516 114° Southeast 463 533 23,400 -1,500 Descending FlightAware ADS-B
11:01PM 41.1345 -75.2761 114° Southeast 467 537 23,000 -420 Descending FlightAware ADS-B
11:02PM 41.1067 -75.1941 114° Southeast 466 536 23,000  Level FlightAware ADS-B
11:02PM 41.0801 -75.1157 114° Southeast 461 531 23,000  Level FlightAware ADS-B
11:03PM 41.0537 -75.0381 114° Southeast 464 534 23,000  Level FlightAware ADS-B
11:03PM 41.0265 -74.9582 114° Southeast 464 534 23,000  Level FlightAware ADS-B
11:04PM 41.0116 -74.9146 114° Southeast 465 535 23,000  Level FlightAware ADS-B
11:04PM 41.0054 -74.8964 114° Southeast 465 535 23,000  Level FlightAware ADS-B
11:04PM 40.9997 -74.8771 111° Southeast 465 535 23,000  Level FlightAware ADS-B
11:04PM 40.9965 -74.8627 106° East 465 535 23,000  Level FlightAware ADS-B
11:04PM 40.9933 -74.8438 103° East 465 535 23,000  Level FlightAware ADS-B
11:05PM 40.9862 -74.7779 98° East 464 534 23,000  Level FlightAware ADS-B
11:05PM 40.9841 -74.7574 98° East 464 534 23,000 -600 Level FlightAware ADS-B
11:05PM 40.9769 -74.6893 98° East 462 532 22,700 -780 Descending FlightAware ADS-B
11:05PM 40.9749 -74.6716 99° East 461 531 22,600 -1,080 Descending FlightAware ADS-B
11:06PM 40.9661 -74.5924 98° East 461 531 22,100 -1,020 Descending FlightAware ADS-B
11:06PM 40.9660 -74.5912 96° East 461 531 22,100 -1,020 Level FlightAware ADS-B
11:06PM 40.9563 -74.5032 98° East 457 526 21,600 -1,020 Descending FlightAware ADS-B
11:07PM 40.9471 -74.4213 98° East 446 513 21,100 -1,020 Descending FlightAware ADS-B
11:07PM 40.9380 -74.3398 98° East 420 483 20,600 -1,200 Descending FlightAware ADS-B
11:08PM 40.9297 -74.2647 98° East 402 463 19,900 -1,320 Descending FlightAware ADS-B
11:08PM 40.9215 -74.1924 99° East 379 436 19,300 -1,020 Descending FlightAware ADS-B
11:08PM 40.9171 -74.1546 99° East 370 426 19,100 -900 Descending FlightAware ADS-B
11:09PM 40.9157 -74.1457 102° East 369 425 19,000 -1,020 Descending FlightAware ADS-B
11:09PM 40.9153 -74.1437 105° East 369 425 19,000  Level FlightAware ADS-B
11:09PM 40.9135 -74.1366 109° East 367 422 19,000  Level FlightAware ADS-B
11:09PM 40.9129 -74.1343 109° East 368 423 19,000  Level FlightAware ADS-B
11:09PM 40.9065 -74.1178 117° Southeast 366 421 19,000  Level FlightAware ADS-B
11:09PM 40.8775 -74.0623 125° Southeast 364 419 19,000  Level FlightAware ADS-B
11:09PM 40.8762 -74.0601 128° Southeast 364 419 19,000 -1,200 Level FlightAware ADS-B
11:10PM 40.8472 -74.0073 126° Southeast 357 411 18,400 -1,200 Descending FlightAware ADS-B
11:10PM 40.8464 -74.0057 123° Southeast 357 411 18,400 -1,800 Level FlightAware ADS-B
11:10PM 40.8178 -73.9539 126° Southeast 356 410 17,500 -1,800 Descending FlightAware ADS-B
11:10PM 40.8162 -73.9510 126° Southeast 357 411 17,500 -1,320 Level FlightAware ADS-B
11:11PM 40.7956 -73.9140 126° Southeast 351 404 17,000 -1,560 Descending FlightAware ADS-B
11:11PM 40.7674 -73.8620 126° Southeast 345 397 16,200 -1,500 Descending FlightAware ADS-B
11:12PM 40.7399 -73.8109 125° Southeast 340 391 15,500 -1,620 Descending FlightAware ADS-B
11:12PM 40.7126 -73.7605 126° Southeast 331 381 14,600 -2,100 Descending FlightAware ADS-B
11:13PM 40.6901 -73.7221 128° Southeast 325 374 13,600 -2,400 Descending FlightAware ADS-B
11:13PM 40.6800 -73.7122 143° Southeast 320 368 13,300 -2,520 Descending FlightAware ADS-B
11:13PM 40.6532 -73.6944 153° Southeast 315 362 12,400 -2,580 Descending FlightAware ADS-B
11:13PM 40.6440 -73.6895 158° South 314 361 12,100 -2,340 Descending FlightAware ADS-B
11:13PM 40.6345 -73.6863 166° South 312 359 11,900 -2,520 Descending FlightAware ADS-B
11:13PM 40.6190 -73.6836 172° South 308 354 11,400 -2,460 Descending FlightAware ADS-B
11:14PM 40.5761 -73.6785 175° South 304 350 10,200 -2,400 Descending FlightAware ADS-B
11:14PM 40.5659 -73.6784 180° South 300 345 9,900 -2,220 Descending FlightAware ADS-B
11:14PM 40.5607 -73.6793 187° South 299 344 9,800 -2,580 Descending FlightAware ADS-B
11:14PM 40.5561 -73.6803 189° South 297 342 9,600 -2,280 Descending FlightAware ADS-B
11:14PM 40.5503 -73.6820 193° South 297 342 9,500 -2,040 Descending FlightAware ADS-B
11:14PM 40.5443 -73.6839 194° South 297 342 9,300 -1,500 Descending FlightAware ADS-B
11:15PM 40.5241 -73.6910 195° South 293 337 9,000 -960 Descending FlightAware ADS-B
11:15PM 40.5030 -73.6985 195° South 284 327 8,800 -780 Descending FlightAware ADS-B
11:15PM 40.4836 -73.7054 195° South 275 316 8,600 -1,020 Descending FlightAware ADS-B
11:15PM 40.4650 -73.7121 195° South 270 311 8,300 -1,140 Descending FlightAware ADS-B
11:16PM 40.4504 -73.7173 195° South 268 308 8,100 -1,140 Descending FlightAware ADS-B
11:16PM 40.4323 -73.7239 196° South 263 303 7,800 -600 Descending FlightAware ADS-B
11:16PM 40.4139 -73.7307 196° South 255 293 7,800  Level FlightAware ADS-B
11:16PM 40.4092 -73.7327 198° South 252 290 7,800  Level FlightAware ADS-B
11:16PM 40.4048 -73.7352 203° Southwest 251 289 7,800 -600 Level FlightAware ADS-B
11:16PM 40.3981 -73.7410 213° Southwest 248 285 7,700 -1,020 Descending FlightAware ADS-B
11:17PM 40.3932 -73.7476 226° Southwest 246 283 7,600 -720 Descending FlightAware ADS-B
11:17PM 40.3913 -73.7512 235° Southwest 245 282 7,600 -900 Level FlightAware ADS-B
11:17PM 40.3891 -73.7565 241° Southwest 244 281 7,500 -1,800 Descending FlightAware ADS-B
11:17PM 40.3866 -73.7653 250° West 243 280 7,300 -1,380 Descending FlightAware ADS-B
11:17PM 40.3822 -73.7868 255° West 242 278 7,000 -1,200 Descending FlightAware ADS-B
11:17PM 40.3779 -73.8085 255° West 240 276 6,700 -1,140 Descending FlightAware ADS-B
11:18PM 40.3730 -73.8316 254° West 238 274 6,400 -1,320 Descending FlightAware ADS-B
11:18PM 40.3683 -73.8529 254° West 235 270 6,000 -1,500 Descending FlightAware ADS-B
11:18PM 40.3640 -73.8717 253° West 232 267 5,700 -1,620 Descending FlightAware ADS-B
11:18PM 40.3631 -73.8788 261° West 232 267 5,500 -2,220 Descending FlightAware ADS-B
11:18PM 40.3633 -73.8871 272° West 231 266 5,300 -1,800 Descending FlightAware ADS-B
11:18PM 40.3641 -73.8924 281° West 231 266 5,200 -1,200 Descending FlightAware ADS-B
11:18PM 40.3666 -73.9003 293° West 230 265 5,100 -1,200 Descending FlightAware ADS-B
11:18PM 40.3687 -73.9046 303° West 229 264 5,000 -1,740 Descending FlightAware ADS-B
11:18PM 40.3711 -73.9084 310° West 228 262 4,900 -1,200 Descending FlightAware ADS-B
11:19PM 40.3754 -73.9132 320° Northwest 227 261 4,800 -1,140 Descending FlightAware ADS-B
11:19PM 40.3799 -73.9175 324° Northwest 226 260 4,700 -1,320 Descending FlightAware ADS-B
11:19PM 40.3932 -73.9288 327° Northwest 223 257 4,400 -1,380 Descending FlightAware ADS-B
11:19PM 40.4070 -73.9404 327° Northwest 225 259 4,000 -1,560 Descending FlightAware ADS-B
11:19PM 40.4203 -73.9513 328° Northwest 227 261 3,600 -1,200 Descending FlightAware ADS-B
11:20PM 40.4339 -73.9626 328° Northwest 222 255 3,400 -780 Descending FlightAware ADS-B
11:20PM 40.4415 -73.9688 328° Northwest 219 252 3,300 -1,020 Descending FlightAware ADS-B
11:20PM 40.4450 -73.9710 334° Northwest 219 252 3,200 -1,380 Descending FlightAware ADS-B
11:20PM 40.4498 -73.9729 343° North 220 253 3,100 -1,500 Descending FlightAware ADS-B
11:20PM 40.4520 -73.9733 352° North 220 253 3,000 -1,380 Descending FlightAware ADS-B
11:20PM 40.4589 -73.9733 360° North 221 254 2,900 -900 Descending FlightAware ADS-B
11:20PM 40.4671 -73.9721 North 220 253 2,800 -360 Descending FlightAware ADS-B
11:20PM 40.4771 -73.9705 North 213 245 2,800  Level FlightAware ADS-B
11:21PM 40.4920 -73.9682 North 197 227 2,800  Level FlightAware ADS-B
11:21PM 40.5058 -73.9663 North 193 222 2,800  Level FlightAware ADS-B
11:21PM 40.5210 -73.9643 North 191 220 2,800  Level FlightAware ADS-B
11:21PM 40.5270 -73.9630 North 191 220 2,800 -180 Level FlightAware ADS-B
11:22PM 40.5500 -73.9460 29° Northeast 184 212 2,700 -600 Descending FlightAware
11:22PM 40.5720 -73.9280 32° Northeast 184 212 2,200 -960 Descending FlightAware
11:23PM 40.5910 -73.9120 33° Northeast 185 213 1,800 -960 Descending FlightAware
11:23PM 40.6080 -73.8980 32° Northeast 181 208 1,400 -900 Descending FlightAware
11:24PM 40.6310 -73.8810 29° Northeast 154 177 1,000 -780 Descending FlightAware
11:24PM 40.6350 -73.8770 37° Northeast 153 176 900 -720 Descending FlightAware
11:24PM 40.6560 -73.8600 32° Northeast 151 174 500 -600 Descending FlightAware
11:25PM 40.6640 -73.8490 46° Northeast 149 171 400 -240 Descending FlightAware
11:25PM 40.6670 -73.8400 66° East 145 167 400 -360 Level FlightAware
11:26PM 40.6640 -73.8030 96° East 140 161 100 -420 Descending FlightAware
11:26PM 40.6520 -73.7770 121° Southeast 110 127 -180 Descending FlightAware
11:27PM 40.6490 -73.7720 128° Southeast 57 66  Level FlightAware
11:27PM 40.6480 -73.7690 114° Southeast 18 21  Level FlightAware
11:27PM 40.6470 -73.7690 180° South 26 30  Level FlightAware
11:27PM 40.6460 -73.7690 180° South 27 31  Level FlightAware
11:28PM 40.6450 -73.7700 217° Southwest 20 23  Level FlightAware
11:28PM 40.6440 -73.7700 180° South 33 38  Level FlightAware
11:29PM 40.6430 -73.7710 217° Southwest 15 17  Level FlightAware
11:29PM 40.6420 -73.7720 217° Southwest 16 18  Level FlightAware
11:30PM 40.6400 -73.7730 201° Southwest 17 20  Level FlightAware
11:30PM 40.6370 -73.7750 207° Southwest 17 20  Level FlightAware
11:30PM 40.6370 -73.7760 270° West 24 28  Level FlightAware
11:31PM 40.6380 -73.7770 323° Northwest 28 32  Level FlightAware
11:31PM 40.6390 -73.7780 323° Northwest 19 22  Level FlightAware
11:34PM 40.6398 -73.7789 45° Northeast  Level Estimated
11:35PM 40.6398 -73.7789 45° Northeast  Level Estimated
11:36PM 40.6398 -73.7789 45° Northeast  Level Estimated
11:37PM 40.6398 -73.7789 45° Northeast  Level Estimated
11:38PM 40.6398 -73.7789 45° Northeast  Level Estimated
11:39PM 40.6398 -73.7789 45° Northeast  Level Estimated